createdAt,value
2023-05-19T00:01:30.032Z,14.00
2023-05-19T00:03:59.186Z,14.00
2023-05-19T00:06:31.850Z,14.00
2023-05-19T00:09:03.237Z,14.00
2023-05-19T00:11:31.258Z,14.00
2023-05-19T00:14:01.743Z,14.10
2023-05-19T00:16:30.922Z,14.10
2023-05-19T00:19:03.038Z,14.10
2023-05-19T00:21:31.520Z,14.00
2023-05-19T00:23:59.293Z,14.00
2023-05-19T00:26:28.314Z,14.00
2023-05-19T00:28:55.919Z,14.00
2023-05-19T00:31:23.275Z,14.00
2023-05-19T00:33:50.489Z,14.00
2023-05-19T00:36:17.757Z,14.00
2023-05-19T00:38:45.004Z,14.00
2023-05-19T00:41:12.248Z,14.00
2023-05-19T00:43:39.548Z,14.00
2023-05-19T00:46:07.603Z,14.00
2023-05-19T00:48:34.935Z,14.00
2023-05-19T00:51:05.989Z,14.00
2023-05-19T00:53:34.439Z,14.00
2023-05-19T00:56:03.493Z,14.00
2023-05-19T00:58:32.915Z,14.00
2023-05-19T01:01:05.299Z,14.00
2023-05-19T01:03:37.608Z,14.00
2023-05-19T01:06:05.708Z,14.00
2023-05-19T01:08:34.765Z,14.00
2023-05-19T01:11:02.229Z,14.00
2023-05-19T01:13:29.899Z,14.00
2023-05-19T01:16:13.244Z,14.00
2023-05-19T01:18:51.163Z,14.00
2023-05-19T01:21:45.685Z,14.00
2023-05-19T01:24:39.904Z,14.00
2023-05-19T01:27:57.019Z,14.00
2023-05-19T01:30:48.941Z,14.00
2023-05-19T01:33:16.697Z,13.90
2023-05-19T01:35:45.977Z,13.90
2023-05-19T01:38:16.729Z,13.90
2023-05-19T01:40:45.313Z,13.90
2023-05-19T01:43:17.786Z,13.90
2023-05-19T01:45:46.001Z,13.90
2023-05-19T01:48:14.730Z,13.90
2023-05-19T01:50:43.050Z,13.90
2023-05-19T01:53:11.170Z,13.90
2023-05-19T01:55:49.773Z,13.90
2023-05-19T01:58:53.606Z,13.90
2023-05-19T02:01:44.664Z,13.90
2023-05-19T02:05:10.585Z,13.90
2023-05-19T02:07:52.635Z,13.90
2023-05-19T02:10:23.824Z,13.80
2023-05-19T02:13:13.533Z,13.90
2023-05-19T02:15:46.832Z,13.90
2023-05-19T02:18:18.211Z,13.80
2023-05-19T02:21:04.989Z,13.80
2023-05-19T02:23:32.329Z,13.80
2023-05-19T02:25:59.555Z,13.80
2023-05-19T02:28:28.539Z,13.80
2023-05-19T02:30:55.897Z,13.80
2023-05-19T02:33:26.201Z,13.80
2023-05-19T02:35:54.032Z,13.80
2023-05-19T02:38:21.534Z,13.80
2023-05-19T02:40:48.664Z,13.80
2023-05-19T02:43:15.973Z,13.80
2023-05-19T02:45:43.189Z,13.80
2023-05-19T02:48:10.831Z,13.80
2023-05-19T02:50:38.206Z,13.80
2023-05-19T02:53:05.406Z,13.70
2023-05-19T02:55:32.586Z,13.80
2023-05-19T02:58:00.038Z,13.80
2023-05-19T03:00:27.223Z,13.80
2023-05-19T03:02:54.719Z,13.80
2023-05-19T03:05:22.085Z,13.70
2023-05-19T03:07:49.345Z,13.70
2023-05-19T03:10:16.566Z,13.70
2023-05-19T03:12:43.765Z,13.70
2023-05-19T03:15:13.247Z,13.70
2023-05-19T03:17:41.010Z,13.70
2023-05-19T03:20:09.149Z,13.70
2023-05-19T03:22:36.457Z,13.70
2023-05-19T03:25:05.035Z,13.70
2023-05-19T03:27:32.167Z,13.70
2023-05-19T03:29:59.349Z,13.70
2023-05-19T03:32:26.751Z,13.70
2023-05-19T03:34:53.961Z,13.70
2023-05-19T03:37:21.199Z,13.70
2023-05-19T03:39:48.470Z,13.70
2023-05-19T03:42:16.251Z,13.70
2023-05-19T03:44:44.750Z,13.70
2023-05-19T03:47:12.200Z,13.60
2023-05-19T03:49:39.436Z,13.60
2023-05-19T03:52:06.752Z,13.60
2023-05-19T03:54:34.076Z,13.50
2023-05-19T03:57:02.273Z,13.50
2023-05-19T03:59:29.432Z,13.50
2023-05-19T04:01:57.957Z,13.50
2023-05-19T04:04:25.485Z,13.50
2023-05-19T04:06:52.748Z,13.40
2023-05-19T04:09:19.968Z,13.40
2023-05-19T04:11:47.172Z,13.40
2023-05-19T04:14:14.360Z,13.40
2023-05-19T04:16:41.900Z,13.30
2023-05-19T04:19:09.132Z,13.30
2023-05-19T04:21:36.574Z,13.30
2023-05-19T04:24:06.718Z,13.30
2023-05-19T04:26:34.681Z,13.30
2023-05-19T04:29:05.062Z,13.30
2023-05-19T04:31:34.572Z,13.30
2023-05-19T04:34:02.009Z,13.30
2023-05-19T04:36:29.218Z,13.30
2023-05-19T04:39:02.387Z,13.30
2023-05-19T04:41:29.790Z,13.40
2023-05-19T04:43:57.675Z,13.40
2023-05-19T04:46:26.183Z,13.40
2023-05-19T04:48:55.488Z,13.50
2023-05-19T04:51:23.277Z,13.50
2023-05-19T04:53:51.760Z,13.60
2023-05-19T04:56:18.958Z,13.60
2023-05-19T04:58:47.248Z,13.70
2023-05-19T05:01:15.935Z,13.70
2023-05-19T05:03:43.683Z,13.80
2023-05-19T05:06:12.404Z,13.80
2023-05-19T05:08:41.345Z,13.90
2023-05-19T05:11:09.188Z,13.90
2023-05-19T05:13:36.906Z,14.00
2023-05-19T05:16:06.743Z,14.00
2023-05-19T05:18:35.328Z,14.10
2023-05-19T05:21:06.476Z,14.10
2023-05-19T05:23:34.081Z,14.20
2023-05-19T05:26:10.780Z,14.20
2023-05-19T05:28:38.011Z,14.30
2023-05-19T05:31:07.533Z,14.40
2023-05-19T05:33:34.773Z,14.50
2023-05-19T05:36:04.354Z,14.60
2023-05-19T05:38:40.439Z,14.60
2023-05-19T05:41:07.706Z,14.70
2023-05-19T05:43:35.008Z,14.80
2023-05-19T05:46:03.892Z,14.90
2023-05-19T05:48:32.932Z,14.90
2023-05-19T05:51:00.601Z,15.00
2023-05-19T05:53:32.508Z,15.00
2023-05-19T05:56:01.293Z,15.10
2023-05-19T05:58:29.032Z,15.20
2023-05-19T06:00:57.883Z,15.20
2023-05-19T06:03:25.341Z,15.20
2023-05-19T06:05:52.820Z,15.20
2023-05-19T06:08:23.028Z,15.30
2023-05-19T06:10:50.519Z,15.30
2023-05-19T06:13:22.349Z,15.40
2023-05-19T06:15:50.254Z,15.40
2023-05-19T06:18:17.739Z,15.50
2023-05-19T06:20:45.129Z,15.60
2023-05-19T06:23:12.349Z,15.60
2023-05-19T06:25:39.670Z,15.70
2023-05-19T06:28:06.824Z,15.80
2023-05-19T06:30:36.929Z,15.80
2023-05-19T06:33:05.790Z,15.90
2023-05-19T06:35:33.091Z,16.00
2023-05-19T06:38:02.051Z,16.00
2023-05-19T06:40:29.708Z,16.10
2023-05-19T06:42:57.769Z,16.20
2023-05-19T06:45:24.896Z,16.30
2023-05-19T06:47:52.194Z,16.30
2023-05-19T06:50:19.564Z,16.40
2023-05-19T06:52:47.287Z,16.40
2023-05-19T06:55:14.696Z,16.50
2023-05-19T06:57:41.963Z,16.60
2023-05-19T07:00:15.839Z,16.60
2023-05-19T07:02:45.238Z,16.60
2023-05-19T07:05:12.816Z,16.70
2023-05-19T07:07:40.047Z,16.70
2023-05-19T07:10:07.985Z,16.70
2023-05-19T07:12:35.175Z,16.70
2023-05-19T07:15:02.575Z,16.70
2023-05-19T07:17:29.792Z,16.80
2023-05-19T07:19:57.039Z,16.80
2023-05-19T07:22:24.388Z,16.80
2023-05-19T07:24:51.599Z,16.80
2023-05-19T07:27:19.068Z,16.80
2023-05-19T07:29:46.409Z,16.80
2023-05-19T07:32:13.688Z,16.90
2023-05-19T07:34:41.641Z,16.80
2023-05-19T07:37:08.988Z,16.80
2023-05-19T07:39:45.395Z,16.80
2023-05-19T07:42:15.969Z,16.90
2023-05-19T07:44:46.499Z,16.90
2023-05-19T07:47:20.052Z,16.90
2023-05-19T07:49:50.389Z,17.00
2023-05-19T07:52:20.465Z,17.00
2023-05-19T07:54:50.223Z,17.00
2023-05-19T07:57:19.085Z,17.00
2023-05-19T07:59:46.485Z,17.00
2023-05-19T08:02:15.679Z,17.00
2023-05-19T08:04:43.043Z,17.00
2023-05-19T08:07:10.396Z,17.00
2023-05-19T08:09:37.563Z,17.00
2023-05-19T08:12:05.171Z,17.00
2023-05-19T08:14:33.545Z,17.00
2023-05-19T08:17:01.122Z,17.00
2023-05-19T08:19:28.429Z,17.00
2023-05-19T08:21:57.753Z,17.10
2023-05-19T08:24:26.954Z,17.10
2023-05-19T08:26:54.272Z,17.10
2023-05-19T08:29:21.840Z,17.10
2023-05-19T08:31:49.143Z,17.10
2023-05-19T08:34:16.738Z,17.10
2023-05-19T08:36:45.400Z,17.10
2023-05-19T08:39:14.102Z,17.10
2023-05-19T08:41:41.329Z,17.10
2023-05-19T08:44:08.563Z,17.20
2023-05-19T08:46:36.253Z,17.20
2023-05-19T08:49:13.420Z,17.30
2023-05-19T08:52:27.315Z,17.40
2023-05-19T08:55:08.068Z,17.40
2023-05-19T08:57:37.014Z,17.50
2023-05-19T09:00:09.698Z,17.60
2023-05-19T09:02:50.309Z,17.70
2023-05-19T09:05:26.733Z,17.70
2023-05-19T09:07:54.002Z,17.80
2023-05-19T09:10:21.353Z,17.80
2023-05-19T09:12:49.864Z,17.80
2023-05-19T09:15:20.347Z,17.70
2023-05-19T09:17:50.689Z,17.70
2023-05-19T09:20:18.072Z,17.60
2023-05-19T09:22:47.494Z,17.60
2023-05-19T09:25:24.506Z,17.60
2023-05-19T09:27:54.528Z,17.60
2023-05-19T09:30:21.831Z,17.70
2023-05-19T09:32:49.093Z,17.70
2023-05-19T09:35:20.814Z,17.70
2023-05-19T09:37:48.406Z,17.80
2023-05-19T09:40:16.742Z,17.90
2023-05-19T09:42:48.930Z,18.00
2023-05-19T09:45:16.704Z,18.10
2023-05-19T09:47:44.098Z,18.20
2023-05-19T09:50:12.858Z,18.30
2023-05-19T09:52:43.808Z,18.40
2023-05-19T09:55:13.615Z,18.50
2023-05-19T09:57:42.145Z,18.70
2023-05-19T10:00:13.806Z,18.80
2023-05-19T10:02:47.728Z,18.90
2023-05-19T10:05:20.071Z,19.10
2023-05-19T10:07:51.667Z,19.20
2023-05-19T10:10:23.309Z,19.40
2023-05-19T10:12:50.904Z,19.70
2023-05-19T10:15:22.168Z,19.90
2023-05-19T10:17:51.087Z,20.10
2023-05-19T10:20:18.927Z,20.40
2023-05-19T10:22:47.268Z,20.60
2023-05-19T10:25:16.865Z,20.90
2023-05-19T10:28:08.547Z,21.10
2023-05-19T10:30:41.372Z,21.30
2023-05-19T10:33:13.349Z,21.40
2023-05-19T10:36:09.289Z,21.50
2023-05-19T10:38:46.326Z,21.70
2023-05-19T10:41:46.976Z,21.80
2023-05-19T10:44:42.992Z,22.00
2023-05-19T10:47:12.438Z,22.10
2023-05-19T10:49:40.338Z,22.20
2023-05-19T10:52:30.191Z,22.30
2023-05-19T10:54:58.445Z,22.40
2023-05-19T10:57:28.315Z,22.40
2023-05-19T10:59:59.727Z,22.50
2023-05-19T11:02:41.382Z,22.50
2023-05-19T11:05:15.117Z,22.50
2023-05-19T11:08:04.566Z,22.50
2023-05-19T11:10:32.524Z,22.50
2023-05-19T11:13:00.368Z,22.50
2023-05-19T11:15:29.050Z,22.50
2023-05-19T11:17:57.286Z,22.50
2023-05-19T11:20:30.289Z,22.40
2023-05-19T11:23:08.821Z,22.40
2023-05-19T11:25:48.461Z,22.40
2023-05-19T11:28:28.092Z,22.50
2023-05-19T11:30:58.030Z,22.50
2023-05-19T11:33:42.588Z,22.60
2023-05-19T11:36:11.794Z,22.60
2023-05-19T11:38:41.774Z,22.70
2023-05-19T11:41:09.238Z,22.70
2023-05-19T11:43:40.648Z,22.70
2023-05-19T11:46:09.900Z,22.70
2023-05-19T11:48:37.225Z,22.80
2023-05-19T11:51:06.675Z,22.80
2023-05-19T11:53:36.362Z,22.90
2023-05-19T11:56:07.185Z,23.00
2023-05-19T11:58:34.386Z,23.20
2023-05-19T12:01:05.010Z,23.40
2023-05-19T12:03:33.178Z,23.50
2023-05-19T12:06:00.918Z,23.60
2023-05-19T12:08:29.687Z,23.70
2023-05-19T12:10:57.390Z,23.80
2023-05-19T12:13:25.725Z,23.90
2023-05-19T12:15:54.922Z,24.10
2023-05-19T12:18:22.402Z,24.20
2023-05-19T12:20:50.777Z,24.30
2023-05-19T12:23:18.092Z,24.30
2023-05-19T12:25:45.407Z,24.40
2023-05-19T12:28:12.908Z,24.50
2023-05-19T12:30:40.250Z,24.70
2023-05-19T12:33:11.336Z,24.80
2023-05-19T12:35:38.711Z,24.90
2023-05-19T12:38:07.188Z,25.00
2023-05-19T12:40:36.621Z,25.10
2023-05-19T12:43:04.632Z,25.10
2023-05-19T12:45:37.342Z,25.20
2023-05-19T12:48:16.279Z,25.20
2023-05-19T12:50:47.765Z,25.30
2023-05-19T12:53:16.530Z,25.30
2023-05-19T12:55:45.638Z,25.30
2023-05-19T12:58:13.407Z,25.30
2023-05-19T13:00:43.823Z,25.20
2023-05-19T13:03:19.717Z,25.20
2023-05-19T13:05:50.670Z,25.20
2023-05-19T13:08:24.177Z,25.20
2023-05-19T13:10:51.979Z,25.20
2023-05-19T13:13:19.751Z,25.20
2023-05-19T13:15:50.764Z,25.20
2023-05-19T13:18:18.707Z,25.20
2023-05-19T13:20:49.218Z,25.20
2023-05-19T13:23:16.655Z,25.20
2023-05-19T13:25:44.333Z,25.20
2023-05-19T13:28:12.958Z,25.20
2023-05-19T13:30:42.048Z,25.20
2023-05-19T13:33:09.477Z,25.20
2023-05-19T13:35:38.566Z,25.20
2023-05-19T13:38:10.512Z,25.20
2023-05-19T13:40:38.384Z,25.20
2023-05-19T13:43:06.200Z,25.20
2023-05-19T13:45:34.555Z,25.20
2023-05-19T13:48:02.090Z,25.20
2023-05-19T13:50:29.469Z,25.30
2023-05-19T13:52:56.841Z,25.30
2023-05-19T13:55:24.287Z,25.30
2023-05-19T13:57:51.606Z,25.30
2023-05-19T14:00:19.689Z,25.40
2023-05-19T14:02:46.955Z,25.40
2023-05-19T14:05:14.248Z,25.50
2023-05-19T14:07:41.567Z,25.60
2023-05-19T14:10:09.467Z,25.70
2023-05-19T14:12:55.137Z,25.80
2023-05-19T14:15:24.250Z,25.80
2023-05-19T14:17:53.765Z,25.90
2023-05-19T14:20:21.083Z,25.90
2023-05-19T14:22:48.335Z,25.90
2023-05-19T14:25:15.654Z,26.00
2023-05-19T14:27:42.783Z,26.10
2023-05-19T14:30:10.760Z,26.20
2023-05-19T14:32:38.081Z,26.40
2023-05-19T14:35:06.491Z,26.50
2023-05-19T14:37:33.844Z,26.50
2023-05-19T14:40:01.210Z,26.60
2023-05-19T14:42:28.359Z,26.60
2023-05-19T14:44:56.123Z,26.60
2023-05-19T14:47:23.535Z,26.60
2023-05-19T14:49:51.607Z,26.60
2023-05-19T14:52:18.885Z,26.50
2023-05-19T14:54:46.155Z,26.50
2023-05-19T14:57:13.445Z,26.50
2023-05-19T14:59:40.845Z,26.40
2023-05-19T15:02:08.105Z,26.40
2023-05-19T15:04:35.283Z,26.30
2023-05-19T15:09:32.523Z,26.30
2023-05-19T15:12:02.788Z,26.30
2023-05-19T15:14:31.020Z,26.30
2023-05-19T15:16:59.125Z,26.30
2023-05-19T15:19:26.897Z,26.30
2023-05-19T15:21:54.372Z,26.30
2023-05-19T15:24:21.613Z,26.30
2023-05-19T15:26:49.003Z,26.40
2023-05-19T15:29:16.485Z,26.40
2023-05-19T15:31:43.894Z,26.50
2023-05-19T15:34:11.126Z,26.60
2023-05-19T15:36:38.450Z,26.60
2023-05-19T15:39:06.662Z,26.50
2023-05-19T15:41:33.959Z,26.50
2023-05-19T15:44:02.507Z,26.50
2023-05-19T15:46:30.621Z,26.40
2023-05-19T15:48:57.934Z,26.40
2023-05-19T15:51:25.730Z,26.40
2023-05-19T15:53:53.391Z,26.40
2023-05-19T15:56:21.718Z,26.40
2023-05-19T15:58:49.162Z,26.30
2023-05-19T16:01:17.036Z,26.30
2023-05-19T16:03:45.979Z,26.20
2023-05-19T16:06:13.443Z,26.20
2023-05-19T16:08:40.632Z,26.10
2023-05-19T16:11:07.979Z,26.00
2023-05-19T16:13:35.318Z,25.90
2023-05-19T16:16:02.806Z,25.80
2023-05-19T16:18:30.159Z,25.70
2023-05-19T16:20:57.436Z,25.60
2023-05-19T16:23:24.952Z,25.60
2023-05-19T16:25:52.430Z,25.50
2023-05-19T16:28:20.093Z,25.40
2023-05-19T16:30:48.150Z,25.40
2023-05-19T16:33:15.409Z,25.30
2023-05-19T16:35:42.742Z,25.20
2023-05-19T16:38:09.916Z,25.20
2023-05-19T16:40:37.230Z,25.10
2023-05-19T16:43:04.542Z,25.10
2023-05-19T16:45:31.710Z,25.00
2023-05-19T16:47:58.907Z,25.00
2023-05-19T16:50:26.129Z,24.90
2023-05-19T16:52:53.229Z,24.90
2023-05-19T16:55:20.750Z,24.80
2023-05-19T16:57:47.967Z,24.70
2023-05-19T17:00:16.054Z,24.70
2023-05-19T17:02:43.324Z,24.60
2023-05-19T17:05:10.610Z,24.50
2023-05-19T17:07:37.710Z,24.40
2023-05-19T17:10:05.771Z,24.30
2023-05-19T17:12:32.957Z,24.20
2023-05-19T17:15:00.188Z,24.10
2023-05-19T17:17:27.526Z,24.00
2023-05-19T17:19:54.725Z,23.90
2023-05-19T17:22:21.928Z,23.80
2023-05-19T17:24:49.088Z,23.70
2023-05-19T17:27:16.327Z,23.60
2023-05-19T17:29:43.547Z,23.50
2023-05-19T17:32:10.746Z,23.40
2023-05-19T17:34:39.281Z,23.30
2023-05-19T17:37:06.409Z,23.20
2023-05-19T17:39:34.008Z,23.10
2023-05-19T17:42:01.285Z,23.00
2023-05-19T17:44:28.426Z,22.90
2023-05-19T17:46:55.831Z,22.80
2023-05-19T17:49:24.486Z,22.80
2023-05-19T17:51:52.311Z,22.70
2023-05-19T17:54:20.630Z,22.60
2023-05-19T17:56:49.169Z,22.50
2023-05-19T17:59:16.747Z,22.50
2023-05-19T18:01:44.486Z,22.40
2023-05-19T18:04:13.932Z,22.30
2023-05-19T18:06:48.306Z,22.30
2023-05-19T18:09:19.661Z,22.30
2023-05-19T18:11:46.935Z,22.20
2023-05-19T18:14:14.152Z,22.20
2023-05-19T18:16:41.373Z,22.20
2023-05-19T18:19:08.929Z,22.10
2023-05-19T18:21:36.127Z,22.00
2023-05-19T18:24:04.575Z,22.00
2023-05-19T18:26:33.244Z,21.90
2023-05-19T18:29:02.923Z,21.80
2023-05-19T18:31:30.509Z,21.70
2023-05-19T18:33:57.683Z,21.60
2023-05-19T18:36:24.823Z,21.60
2023-05-19T18:38:52.332Z,21.50
2023-05-19T18:41:19.507Z,21.40
2023-05-19T18:43:46.865Z,21.40
2023-05-19T18:46:14.142Z,21.30
2023-05-19T18:48:41.504Z,21.20
2023-05-19T18:51:09.492Z,21.10
2023-05-19T18:53:37.245Z,21.10
2023-05-19T18:56:04.857Z,21.00
2023-05-19T18:58:32.706Z,20.90
2023-05-19T19:00:59.856Z,20.80
2023-05-19T19:03:28.777Z,20.70
2023-05-19T19:05:57.786Z,20.60
2023-05-19T19:08:25.234Z,20.60
2023-05-19T19:10:53.669Z,20.50
2023-05-19T19:13:21.285Z,20.40
2023-05-19T19:15:48.471Z,20.30
2023-05-19T19:18:16.064Z,20.30
2023-05-19T19:20:43.347Z,20.20
2023-05-19T19:23:10.667Z,20.10
2023-05-19T19:25:38.008Z,20.00
2023-05-19T19:28:05.184Z,20.00
2023-05-19T19:30:32.625Z,19.90
2023-05-19T19:33:00.366Z,19.80
2023-05-19T19:35:27.787Z,19.80
2023-05-19T19:37:55.107Z,19.70
2023-05-19T19:40:22.574Z,19.60
2023-05-19T19:42:51.864Z,19.50
2023-05-19T19:45:19.749Z,19.50
